createdAt,value
2018-05-26T00:01:21.305Z,89.10
2018-05-26T00:03:49.240Z,89.14
2018-05-26T00:06:16.660Z,89.36
2018-05-26T00:08:44.051Z,90.27
2018-05-26T00:11:11.457Z,91.03
2018-05-26T00:13:38.925Z,91.09
2018-05-26T00:16:06.324Z,91.71
2018-05-26T00:18:33.720Z,92.26
2018-05-26T00:21:01.373Z,91.74
2018-05-26T00:23:28.799Z,91.19
2018-05-26T00:25:56.212Z,90.52
2018-05-26T00:28:23.604Z,89.86
2018-05-26T00:30:52.403Z,88.77
2018-05-26T00:33:19.790Z,88.22
2018-05-26T00:35:47.197Z,88.22
2018-05-26T00:38:14.629Z,88.91
2018-05-26T00:40:42.019Z,89.56
2018-05-26T00:43:09.428Z,89.62
2018-05-26T00:45:36.838Z,90.08
2018-05-26T00:48:04.249Z,90.05
2018-05-26T00:50:31.660Z,89.65
2018-05-26T00:52:59.065Z,89.28
2018-05-26T00:55:26.460Z,89.01
2018-05-26T00:57:53.863Z,88.44
2018-05-26T01:00:22.106Z,88.02
2018-05-26T01:02:49.522Z,87.79
2018-05-26T01:05:16.920Z,88.73
2018-05-26T01:07:44.326Z,89.18
2018-05-26T01:10:11.715Z,90.07
2018-05-26T01:12:39.238Z,90.11
2018-05-26T01:15:06.895Z,90.13
2018-05-26T01:17:34.292Z,90.24
2018-05-26T01:20:01.696Z,89.88
2018-05-26T01:22:29.103Z,89.73
2018-05-26T01:24:56.500Z,90.29
2018-05-26T01:27:23.897Z,89.34
2018-05-26T01:29:51.289Z,88.74
2018-05-26T01:32:18.799Z,88.46
2018-05-26T01:34:46.196Z,88.08
2018-05-26T01:37:13.615Z,87.46
2018-05-26T01:39:41.012Z,87.55
2018-05-26T01:42:09.029Z,87.92
2018-05-26T01:44:36.451Z,88.75
2018-05-26T01:47:03.985Z,89.12
2018-05-26T01:49:32.265Z,89.15
2018-05-26T01:51:59.667Z,89.27
2018-05-26T01:54:27.068Z,90.34
2018-05-26T01:56:54.643Z,90.88
2018-05-26T01:59:22.255Z,91.16
2018-05-26T02:01:50.590Z,91.24
2018-05-26T02:04:18.089Z,91.27
2018-05-26T02:06:45.520Z,91.27
2018-05-26T02:09:12.928Z,90.83
2018-05-26T02:11:41.015Z,91.15
2018-05-26T02:14:08.571Z,91.28
2018-05-26T02:16:35.976Z,91.43
2018-05-26T02:19:03.389Z,91.71
2018-05-26T02:21:30.783Z,91.50
2018-05-26T02:23:58.200Z,91.35
2018-05-26T02:26:25.588Z,91.70
2018-05-26T02:28:53.001Z,91.52
2018-05-26T02:31:20.409Z,91.67
2018-05-26T02:33:48.608Z,91.95
2018-05-26T02:36:16.011Z,92.10
2018-05-26T02:38:47.643Z,92.27
2018-05-26T02:41:15.036Z,92.22
2018-05-26T02:43:42.472Z,92.14
2018-05-26T02:46:09.867Z,92.11
2018-05-26T02:48:37.263Z,92.20
2018-05-26T02:51:04.677Z,92.63
2018-05-26T02:53:32.086Z,92.95
2018-05-26T02:56:01.468Z,92.73
2018-05-26T02:58:28.874Z,92.32
2018-05-26T03:00:57.220Z,92.14
2018-05-26T03:03:24.631Z,92.28
2018-05-26T03:05:58.453Z,92.78
2018-05-26T03:08:31.564Z,92.92
2018-05-26T03:11:04.522Z,93.23
2018-05-26T03:13:37.607Z,93.95
2018-05-26T03:19:08.639Z,94.27
2018-05-26T03:21:36.055Z,93.60
2018-05-26T03:24:03.455Z,92.58
2018-05-26T03:26:30.843Z,91.71
2018-05-26T03:28:59.440Z,91.20
2018-05-26T03:31:26.828Z,91.24
2018-05-26T03:33:54.224Z,91.57
2018-05-26T03:36:21.688Z,91.53
2018-05-26T03:38:49.037Z,91.44
2018-05-26T03:41:16.423Z,91.47
2018-05-26T03:43:43.840Z,91.16
2018-05-26T03:46:11.245Z,90.86
2018-05-26T03:48:38.701Z,90.74
2018-05-26T03:51:06.117Z,90.64
2018-05-26T03:53:33.506Z,90.65
2018-05-26T03:56:12.859Z,90.58
2018-05-26T03:58:52.445Z,90.86
2018-05-26T04:01:19.828Z,90.69
2018-05-26T04:03:47.230Z,90.23
2018-05-26T04:06:14.724Z,90.03
2018-05-26T04:08:42.147Z,89.70
2018-05-26T04:11:09.562Z,89.16
2018-05-26T04:13:36.957Z,89.59
2018-05-26T04:16:04.731Z,90.02
2018-05-26T04:18:32.447Z,89.70
2018-05-26T04:20:59.843Z,88.04
2018-05-26T04:23:27.496Z,87.11
2018-05-26T04:25:54.904Z,83.53
2018-05-26T04:28:22.305Z,80.52
2018-05-26T04:30:49.921Z,79.26
2018-05-26T04:33:17.369Z,78.47
2018-05-26T04:35:45.546Z,78.44
2018-05-26T04:38:12.933Z,79.01
2018-05-26T04:40:40.477Z,79.40
2018-05-26T04:43:08.333Z,79.28
2018-05-26T04:45:35.722Z,79.99
2018-05-26T04:48:03.216Z,79.67
2018-05-26T04:50:30.685Z,80.20
2018-05-26T04:52:58.073Z,80.06
2018-05-26T04:55:25.493Z,80.24
2018-05-26T04:57:53.180Z,82.23
2018-05-26T05:00:20.584Z,82.75
2018-05-26T05:02:47.977Z,82.46
2018-05-26T05:05:15.387Z,81.91
2018-05-26T05:07:42.788Z,82.90
2018-05-26T05:10:11.095Z,84.79
2018-05-26T05:12:38.524Z,85.43
2018-05-26T05:15:07.232Z,84.43
2018-05-26T05:17:34.619Z,83.31
2018-05-26T05:20:02.042Z,82.20
2018-05-26T05:22:30.448Z,81.25
2018-05-26T05:24:57.839Z,78.91
2018-05-26T05:27:25.244Z,76.45
2018-05-26T05:29:52.624Z,74.35
2018-05-26T05:32:20.056Z,73.09
2018-05-26T05:34:47.451Z,70.78
2018-05-26T05:37:14.847Z,71.18
2018-05-26T05:39:42.232Z,68.65
2018-05-26T05:42:09.644Z,67.80
2018-05-26T05:44:37.035Z,66.67
2018-05-26T05:47:04.446Z,65.07
2018-05-26T05:49:31.900Z,63.69
2018-05-26T05:51:59.302Z,64.78
2018-05-26T05:54:26.687Z,62.94
2018-05-26T05:56:54.092Z,62.74
2018-05-26T05:59:21.488Z,61.27
2018-05-26T06:01:48.896Z,60.33
2018-05-26T06:04:16.293Z,58.26
2018-05-26T06:06:43.712Z,56.58
2018-05-26T06:09:11.747Z,54.83
2018-05-26T06:11:39.148Z,58.58
2018-05-26T06:14:06.575Z,60.78
2018-05-26T06:16:33.958Z,64.04
2018-05-26T06:19:01.353Z,67.55
2018-05-26T06:21:28.756Z,72.04
2018-05-26T06:23:56.164Z,72.93
2018-05-26T06:26:23.578Z,73.44
2018-05-26T06:28:50.969Z,73.80
2018-05-26T06:31:19.096Z,72.18
2018-05-26T06:33:46.498Z,68.25
2018-05-26T06:36:13.887Z,67.17
2018-05-26T06:38:41.324Z,70.81
2018-05-26T06:41:09.139Z,73.96
2018-05-26T06:43:38.888Z,74.33
2018-05-26T06:46:06.263Z,75.47
2018-05-26T06:48:34.605Z,73.75
2018-05-26T06:51:01.997Z,74.06
2018-05-26T06:53:29.472Z,74.36
2018-05-26T06:55:56.871Z,74.43
2018-05-26T06:58:24.282Z,74.02
2018-05-26T07:00:51.688Z,73.07
2018-05-26T07:03:19.096Z,73.33
2018-05-26T07:05:46.477Z,72.68
2018-05-26T07:08:13.948Z,72.29
2018-05-26T07:10:41.512Z,71.89
2018-05-26T07:13:08.912Z,72.14
2018-05-26T07:15:36.305Z,71.70
2018-05-26T07:18:03.709Z,72.55
2018-05-26T07:20:31.146Z,71.92
2018-05-26T07:22:58.535Z,70.57
2018-05-26T07:25:25.943Z,69.28
2018-05-26T07:27:53.397Z,69.30
2018-05-26T07:30:21.641Z,69.95
2018-05-26T07:32:49.051Z,69.95
2018-05-26T07:35:16.487Z,69.27
2018-05-26T07:37:43.881Z,68.57
2018-05-26T07:40:11.273Z,68.45
2018-05-26T07:42:38.677Z,67.83
2018-05-26T07:45:07.000Z,68.80
2018-05-26T07:47:34.426Z,68.35
2018-05-26T07:50:01.825Z,68.10
2018-05-26T07:52:30.127Z,67.17
2018-05-26T07:54:57.540Z,67.02
2018-05-26T07:57:26.560Z,67.13
2018-05-26T22:02:39.111Z,76.57
2018-05-26T22:05:06.488Z,75.87
2018-05-26T22:07:33.889Z,75.76
2018-05-26T22:10:01.272Z,75.46
2018-05-26T22:12:28.679Z,75.01
2018-05-26T22:14:56.061Z,74.83
2018-05-26T22:17:23.464Z,75.13
2018-05-26T22:19:50.892Z,75.65
2018-05-26T22:22:18.298Z,76.45
2018-05-26T22:24:45.685Z,76.48
2018-05-26T22:27:13.079Z,76.31
2018-05-26T22:29:40.492Z,76.26
2018-05-26T22:32:07.889Z,76.70
2018-05-26T22:34:35.277Z,76.65
2018-05-26T22:37:02.729Z,76.47
2018-05-26T22:39:30.141Z,76.38
2018-05-26T22:41:57.530Z,76.08
2018-05-26T22:44:24.920Z,76.19
2018-05-26T22:46:52.416Z,75.54
2018-05-26T22:49:19.972Z,75.16
2018-05-26T22:51:47.369Z,75.00
2018-05-26T22:54:14.755Z,74.25
2018-05-26T22:56:43.181Z,74.97
2018-05-26T22:59:10.905Z,75.28
2018-05-26T23:01:38.300Z,76.78
2018-05-26T23:04:05.791Z,77.70
2018-05-26T23:06:33.203Z,78.11
2018-05-26T23:09:00.580Z,79.27
2018-05-26T23:11:27.983Z,78.94
2018-05-26T23:13:55.383Z,78.59
2018-05-26T23:16:22.779Z,78.26
2018-05-26T23:18:50.152Z,79.09
2018-05-26T23:21:17.557Z,78.78
2018-05-26T23:23:45.120Z,78.05
2018-05-26T23:26:12.550Z,78.55
2018-05-26T23:28:39.936Z,79.84
2018-05-26T23:31:07.338Z,80.67
2018-05-26T23:33:34.733Z,80.40
2018-05-26T23:36:02.120Z,80.46
2018-05-26T23:38:29.516Z,80.45
2018-05-26T23:40:57.031Z,80.58
2018-05-26T23:43:24.428Z,81.25
2018-05-26T23:45:51.814Z,81.61
2018-05-26T23:48:19.205Z,81.90
2018-05-26T23:50:46.592Z,82.08
2018-05-26T23:53:13.996Z,81.75
2018-05-26T23:55:41.408Z,81.47
2018-05-26T23:58:08.814Z,80.85
